createdAt,value
2019-05-13T00:01:54.857Z,6.22
2019-05-13T00:04:24.112Z,6.19
2019-05-13T00:06:54.378Z,6.05
2019-05-13T00:09:19.670Z,6.12
2019-05-13T00:11:46.636Z,6.01
2019-05-13T00:14:13.627Z,5.91
2019-05-13T00:16:40.591Z,5.78
2019-05-13T00:19:07.577Z,5.93
2019-05-13T00:21:34.514Z,5.69
2019-05-13T00:24:03.920Z,5.49
2019-05-13T00:26:30.827Z,5.53
2019-05-13T00:28:57.808Z,5.48
2019-05-13T00:31:24.751Z,5.54
2019-05-13T00:33:53.228Z,5.63
2019-05-13T00:36:20.391Z,5.77
2019-05-13T00:38:47.394Z,5.64
2019-05-13T00:41:14.378Z,5.61
2019-05-13T00:43:41.375Z,5.67
2019-05-13T00:46:08.332Z,5.71
2019-05-13T00:48:35.314Z,5.49
2019-05-13T00:51:03.708Z,5.57
2019-05-13T00:53:31.010Z,5.40
2019-05-13T00:55:57.956Z,5.31
2019-05-13T00:58:24.906Z,5.40
2019-05-13T01:00:54.421Z,5.45
2019-05-13T01:03:20.755Z,5.46
2019-05-13T01:05:47.748Z,5.39
2019-05-13T01:08:14.844Z,5.10
2019-05-13T01:10:41.801Z,5.20
2019-05-13T01:13:08.768Z,5.21
2019-05-13T01:15:35.764Z,5.32
2019-05-13T01:18:03.919Z,5.29
2019-05-13T01:20:31.381Z,5.26
2019-05-13T01:22:58.327Z,5.17
2019-05-13T01:25:25.313Z,5.01
2019-05-13T01:27:53.778Z,5.04
2019-05-13T01:30:21.154Z,4.82
2019-05-13T01:32:48.103Z,4.80
2019-05-13T01:35:15.120Z,4.87
2019-05-13T01:37:43.410Z,4.82
2019-05-13T01:40:10.954Z,4.82
2019-05-13T01:42:37.953Z,4.50
2019-05-13T01:45:05.112Z,4.47
2019-05-13T01:47:34.408Z,4.34
2019-05-13T01:50:03.968Z,4.12
2019-05-13T01:52:30.639Z,4.20
2019-05-13T01:54:57.619Z,4.26
2019-05-13T01:57:24.566Z,3.91
2019-05-13T01:59:53.643Z,3.76
2019-05-13T02:02:20.375Z,3.91
2019-05-13T02:04:47.338Z,3.85
2019-05-13T02:07:14.492Z,3.98
2019-05-13T02:09:44.185Z,4.18
2019-05-13T02:12:10.724Z,4.24
2019-05-13T02:14:37.704Z,4.19
2019-05-13T02:17:04.655Z,4.16
2019-05-13T02:19:33.574Z,4.12
2019-05-13T02:22:00.431Z,4.10
2019-05-13T02:24:27.401Z,3.75
2019-05-13T02:26:54.462Z,3.73
2019-05-13T02:29:21.387Z,3.80
2019-05-13T02:31:55.130Z,3.77
2019-05-13T02:34:17.188Z,3.77
2019-05-13T02:36:44.173Z,3.89
2019-05-13T02:39:12.893Z,3.88
2019-05-13T02:41:42.912Z,3.91
2019-05-13T02:44:11.998Z,3.72
2019-05-13T02:46:37.742Z,3.71
2019-05-13T02:49:04.670Z,3.65
2019-05-13T02:51:32.829Z,3.70
2019-05-13T02:54:03.262Z,3.72
2019-05-13T02:56:28.943Z,3.59
2019-05-13T02:58:55.879Z,3.52
2019-05-13T03:01:22.873Z,3.30
2019-05-13T03:03:52.823Z,3.12
2019-05-13T03:06:18.719Z,3.01
2019-05-13T03:08:49.788Z,3.07
2019-05-13T03:11:14.517Z,3.20
2019-05-13T03:13:42.553Z,3.20
2019-05-13T03:16:16.026Z,3.22
2019-05-13T03:18:43.705Z,3.15
2019-05-13T03:21:12.791Z,3.14
2019-05-13T03:23:43.597Z,3.32
2019-05-13T03:26:08.748Z,3.38
2019-05-13T03:28:35.664Z,3.39
2019-05-13T03:31:06.223Z,3.34
2019-05-13T03:33:36.811Z,3.15
2019-05-13T03:36:06.464Z,3.07
2019-05-13T03:38:33.284Z,3.23
2019-05-13T03:41:03.249Z,3.07
2019-05-13T03:43:32.673Z,2.81
2019-05-13T03:46:04.982Z,3.00
2019-05-13T03:48:34.336Z,3.09
2019-05-13T03:51:03.318Z,3.04
2019-05-13T03:53:32.559Z,3.13
2019-05-13T03:56:02.580Z,3.13
2019-05-13T03:58:32.351Z,3.23
2019-05-13T04:01:02.480Z,3.15
2019-05-13T04:03:28.025Z,3.11
2019-05-13T04:05:54.976Z,2.91
2019-05-13T04:08:22.943Z,3.01
2019-05-13T04:10:52.474Z,2.88
2019-05-13T04:13:23.006Z,2.89
2019-05-13T04:15:52.648Z,3.12
2019-05-13T04:18:18.624Z,2.96
2019-05-13T04:20:45.548Z,3.08
2019-05-13T04:23:13.003Z,3.14
2019-05-13T04:25:44.539Z,3.26
2019-05-13T04:28:09.203Z,3.18
2019-05-13T04:30:36.233Z,3.38
2019-05-13T04:33:03.210Z,3.28
2019-05-13T04:35:32.416Z,3.56
2019-05-13T04:37:59.006Z,3.76
2019-05-13T04:40:25.933Z,3.83
2019-05-13T04:42:53.832Z,3.92
2019-05-13T04:45:23.846Z,4.04
2019-05-13T04:47:52.964Z,4.03
2019-05-13T04:50:22.066Z,4.13
2019-05-13T04:52:47.786Z,4.29
2019-05-13T04:55:14.716Z,4.50
2019-05-13T04:57:42.523Z,4.31
2019-05-13T05:00:12.841Z,4.49
2019-05-13T05:03:05.201Z,4.43
2019-05-13T05:06:03.352Z,4.53
2019-05-13T05:08:58.671Z,4.64
2019-05-13T05:12:09.342Z,4.87
2019-05-13T05:15:20.167Z,4.93
2019-05-13T05:18:52.625Z,4.94
2019-05-13T05:21:24.818Z,5.10
2019-05-13T05:24:22.325Z,5.18
2019-05-13T05:27:42.019Z,5.28
2019-05-13T05:30:51.853Z,5.51
2019-05-13T05:33:51.715Z,5.52
2019-05-13T05:36:56.799Z,5.45
2019-05-13T05:39:24.964Z,5.71
2019-05-13T05:41:55.164Z,5.60
2019-05-13T05:44:24.712Z,5.69
2019-05-13T05:46:54.673Z,5.71
2019-05-13T05:49:24.552Z,6.23
2019-05-13T05:52:01.701Z,6.18
2019-05-13T05:54:32.224Z,6.14
2019-05-13T05:57:01.260Z,6.14
2019-05-13T05:59:28.959Z,6.07
2019-05-13T06:01:57.095Z,6.09
2019-05-13T06:04:24.794Z,6.27
2019-05-13T06:06:53.776Z,6.42
2019-05-13T06:09:21.386Z,6.53
2019-05-13T06:11:48.488Z,6.84
2019-05-13T06:14:15.446Z,6.39
2019-05-13T06:16:42.683Z,6.39
2019-05-13T06:19:12.134Z,6.76
2019-05-13T06:21:38.902Z,6.75
2019-05-13T06:24:05.861Z,6.59
2019-05-13T06:26:32.789Z,6.65
2019-05-13T06:29:02.529Z,6.61
2019-05-13T06:31:28.998Z,6.69
2019-05-13T06:33:55.968Z,7.37
2019-05-13T06:36:22.969Z,7.44
2019-05-13T06:38:51.366Z,7.55
2019-05-13T06:41:18.364Z,7.70
2019-05-13T06:43:45.340Z,8.10
2019-05-13T06:46:12.494Z,8.25
2019-05-13T06:48:41.514Z,8.35
2019-05-13T06:51:08.388Z,8.34
2019-05-13T06:53:35.329Z,8.49
2019-05-13T06:56:02.319Z,8.61
2019-05-13T06:58:29.264Z,8.61
2019-05-13T07:00:57.989Z,8.68
2019-05-13T07:03:25.079Z,8.83
2019-05-13T07:05:52.557Z,9.10
2019-05-13T07:08:22.021Z,8.94
2019-05-13T07:10:48.549Z,9.15
2019-05-13T07:13:15.479Z,8.92
2019-05-13T07:15:42.548Z,9.18
2019-05-13T07:18:11.679Z,9.33
2019-05-13T07:20:38.361Z,9.48
2019-05-13T07:23:05.332Z,9.61
2019-05-13T07:25:32.782Z,9.43
2019-05-13T07:28:02.150Z,9.55
2019-05-13T07:30:37.644Z,9.45
2019-05-13T07:33:04.584Z,9.89
2019-05-13T07:35:37.551Z,9.41
2019-05-13T07:38:02.178Z,9.68
2019-05-13T07:40:32.065Z,9.49
2019-05-13T07:42:58.319Z,9.45
2019-05-13T07:45:25.271Z,9.86
2019-05-13T07:47:52.231Z,9.92
2019-05-13T07:50:21.665Z,10.17
2019-05-13T07:52:48.097Z,10.20
2019-05-13T07:55:15.058Z,10.18
2019-05-13T07:57:42.498Z,9.98
2019-05-13T08:00:12.451Z,10.01
2019-05-13T08:02:41.683Z,10.12
2019-05-13T08:05:08.601Z,10.47
2019-05-13T08:07:35.530Z,10.62
2019-05-13T08:10:03.707Z,10.31
2019-05-13T08:12:31.980Z,10.30
2019-05-13T08:14:59.039Z,10.51
2019-05-13T08:17:25.978Z,10.79
2019-05-13T08:19:52.945Z,10.56
2019-05-13T08:22:22.109Z,10.48
2019-05-13T08:24:51.910Z,10.75
2019-05-13T08:27:24.084Z,10.74
2019-05-13T08:29:46.495Z,10.66
2019-05-13T08:32:13.458Z,11.00
2019-05-13T08:34:41.764Z,11.07
2019-05-13T08:37:11.230Z,10.89
2019-05-13T08:39:38.556Z,10.84
2019-05-13T08:42:15.162Z,10.93
2019-05-13T08:44:34.706Z,11.17
2019-05-13T08:47:03.212Z,11.26
2019-05-13T08:49:32.506Z,11.27
2019-05-13T08:52:01.646Z,11.26
2019-05-13T08:54:28.225Z,11.28
2019-05-13T08:56:55.192Z,11.34
2019-05-13T08:59:22.357Z,11.52
2019-05-13T09:01:51.765Z,11.69
2019-05-13T09:04:18.226Z,11.71
2019-05-13T09:06:45.316Z,11.92
2019-05-13T09:09:12.302Z,12.26
2019-05-13T09:11:39.259Z,12.39
2019-05-13T09:14:06.305Z,12.03
2019-05-13T09:16:33.251Z,12.19
2019-05-13T09:19:03.650Z,12.38
2019-05-13T09:21:31.640Z,12.07
2019-05-13T09:23:57.871Z,12.40
2019-05-13T09:26:24.871Z,12.76
2019-05-13T09:28:52.243Z,12.78
2019-05-13T09:31:21.852Z,12.85
2019-05-13T09:33:48.127Z,12.81
2019-05-13T09:36:15.131Z,13.19
2019-05-13T09:38:42.636Z,13.00
2019-05-13T09:41:12.145Z,13.25
2019-05-13T09:43:38.505Z,13.20
2019-05-13T09:46:06.603Z,13.25
2019-05-13T09:48:33.544Z,13.21
2019-05-13T09:51:02.384Z,13.43
2019-05-13T09:53:29.483Z,13.27
2019-05-13T09:55:56.453Z,13.78
2019-05-13T09:58:23.761Z,13.37
2019-05-13T10:00:52.601Z,13.48
2019-05-13T10:03:26.638Z,13.32
2019-05-13T10:05:51.472Z,13.62
2019-05-13T10:08:17.565Z,13.42
2019-05-13T10:10:44.470Z,13.62
2019-05-13T10:13:14.899Z,13.79
2019-05-13T10:15:42.018Z,13.72
2019-05-13T10:18:09.141Z,13.72
2019-05-13T10:20:45.605Z,13.83
2019-05-13T10:23:13.431Z,14.08
2019-05-13T10:25:41.033Z,14.20
2019-05-13T10:28:08.309Z,14.33
2019-05-13T10:30:35.359Z,14.41
2019-05-13T10:33:03.022Z,14.49
2019-05-13T10:35:31.686Z,14.39
2019-05-13T10:37:59.252Z,14.35
2019-05-13T10:40:26.191Z,14.27
2019-05-13T10:42:53.213Z,14.52
2019-05-13T10:45:22.324Z,14.75
2019-05-13T10:47:51.442Z,15.03
2019-05-13T10:50:17.911Z,14.77
2019-05-13T10:52:45.155Z,14.97
2019-05-13T10:55:13.094Z,15.00
2019-05-13T10:57:42.418Z,14.99
2019-05-13T11:00:11.994Z,14.72
2019-05-13T11:02:38.628Z,14.32
2019-05-13T11:05:06.090Z,14.71
2019-05-13T11:07:33.047Z,14.99
2019-05-13T11:10:00.100Z,14.42
2019-05-13T11:12:28.881Z,14.87
2019-05-13T11:14:55.804Z,14.78
2019-05-13T11:17:30.650Z,15.47
2019-05-13T11:19:51.664Z,15.17
2019-05-13T11:22:18.651Z,14.57
2019-05-13T11:24:45.604Z,14.88
2019-05-13T11:27:12.571Z,14.69
2019-05-13T11:29:41.452Z,14.98
2019-05-13T11:32:08.445Z,15.38
2019-05-13T11:34:35.451Z,15.07
2019-05-13T11:37:03.712Z,15.31
2019-05-13T11:39:32.555Z,15.13
2019-05-13T11:42:02.384Z,15.24
2019-05-13T11:44:31.955Z,15.55
2019-05-13T11:46:58.298Z,14.63
2019-05-13T11:49:25.479Z,14.92
2019-05-13T11:51:52.434Z,15.55
2019-05-13T11:54:22.351Z,15.21
2019-05-13T11:59:28.648Z,15.53
2019-05-13T12:01:55.600Z,15.32
2019-05-13T12:04:24.098Z,15.97
2019-05-13T12:06:54.677Z,15.66
2019-05-13T12:09:22.259Z,15.65
2019-05-13T12:11:49.204Z,15.69
2019-05-13T12:14:39.133Z,16.33
2019-05-13T12:16:45.032Z,16.86
2019-05-13T12:19:12.150Z,16.67
2019-05-13T12:21:43.311Z,16.72
2019-05-13T12:24:11.142Z,17.38
2019-05-13T12:26:36.945Z,17.79
2019-05-13T12:29:03.989Z,16.60
2019-05-13T12:31:33.612Z,16.35
2019-05-13T12:34:02.859Z,16.15
2019-05-13T12:36:28.879Z,16.24
2019-05-13T12:38:55.867Z,16.68
2019-05-13T12:41:23.225Z,16.41
2019-05-13T12:43:53.609Z,16.16
2019-05-13T12:46:19.384Z,15.85
2019-05-13T12:48:46.551Z,16.14
2019-05-13T12:51:13.593Z,16.41
2019-05-13T12:53:43.411Z,16.58
2019-05-13T12:56:12.567Z,16.47
2019-05-13T12:58:38.697Z,16.44
2019-05-13T13:01:05.669Z,16.76
2019-05-13T13:03:32.730Z,16.41
2019-05-13T13:06:24.630Z,16.52
2019-05-13T13:08:41.118Z,16.03
2019-05-13T13:10:57.443Z,16.22
2019-05-13T13:13:52.478Z,16.33
2019-05-13T13:15:53.364Z,16.20
2019-05-13T13:18:22.441Z,15.93
2019-05-13T13:20:58.002Z,16.21
2019-05-13T13:23:18.198Z,16.73
2019-05-13T13:25:52.660Z,16.20
2019-05-13T13:28:15.424Z,16.17
2019-05-13T13:30:44.162Z,16.60
2019-05-13T13:33:15.130Z,17.10
2019-05-13T13:35:45.280Z,16.99
2019-05-13T13:38:09.413Z,16.83
2019-05-13T13:40:36.998Z,16.29
2019-05-13T13:43:05.471Z,16.60
2019-05-13T13:45:52.102Z,16.16
2019-05-13T13:48:03.921Z,15.78
2019-05-13T13:50:33.542Z,17.32
2019-05-13T13:52:59.442Z,16.93
2019-05-13T13:55:26.473Z,17.03
2019-05-13T13:57:56.712Z,17.41
2019-05-13T14:00:38.159Z,16.76
2019-05-13T14:02:54.250Z,16.74
2019-05-13T14:05:24.682Z,17.00
2019-05-13T14:07:52.056Z,17.13
2019-05-13T14:10:19.153Z,17.06
2019-05-13T14:12:46.101Z,16.53
2019-05-13T14:15:13.295Z,16.74
2019-05-13T14:17:41.837Z,16.69
2019-05-13T14:20:09.396Z,17.30
2019-05-13T14:22:36.385Z,16.85
2019-05-13T14:25:03.923Z,15.98
2019-05-13T14:27:31.434Z,16.50
2019-05-13T14:29:58.526Z,16.33
2019-05-13T14:32:27.618Z,16.69
2019-05-13T14:34:54.602Z,16.42
2019-05-13T14:37:22.462Z,16.23
2019-05-13T14:39:49.660Z,16.61
2019-05-13T14:42:16.667Z,16.82
2019-05-13T14:44:43.604Z,16.39
2019-05-13T14:47:12.489Z,16.57
2019-05-13T14:49:42.097Z,17.09
2019-05-13T14:52:08.288Z,16.80
2019-05-13T14:54:35.420Z,17.12
2019-05-13T14:57:02.615Z,16.61
2019-05-13T14:59:31.434Z,16.38
2019-05-13T15:01:58.431Z,16.78
2019-05-13T15:04:25.353Z,16.77
2019-05-13T15:06:52.351Z,16.40
2019-05-13T15:09:19.326Z,16.00
2019-05-13T15:11:46.411Z,16.18
2019-05-13T15:14:13.348Z,16.48
2019-05-13T15:16:42.519Z,16.33
2019-05-13T15:19:11.311Z,16.58
2019-05-13T15:21:38.054Z,17.16
2019-05-13T15:24:05.384Z,16.94
2019-05-13T15:26:32.391Z,16.28
2019-05-13T15:29:02.609Z,16.23
2019-05-13T15:31:28.431Z,16.10
2019-05-13T15:33:55.401Z,16.77
2019-05-13T15:36:22.747Z,16.17
2019-05-13T15:38:52.846Z,16.76
2019-05-13T15:41:20.412Z,16.31
2019-05-13T15:43:47.369Z,16.32
2019-05-13T15:46:14.547Z,16.75
2019-05-13T15:48:42.289Z,16.64
2019-05-13T15:51:11.266Z,16.86
2019-05-13T15:53:38.361Z,17.03
2019-05-13T15:56:05.338Z,16.63
2019-05-13T15:58:39.144Z,16.52
2019-05-13T16:01:02.912Z,16.94
2019-05-13T16:03:30.049Z,16.54
2019-05-13T16:05:57.071Z,16.65
2019-05-13T16:08:24.037Z,16.69
2019-05-13T16:10:53.274Z,16.29
2019-05-13T16:13:22.125Z,16.06
2019-05-13T16:15:48.665Z,16.78
2019-05-13T16:18:15.954Z,15.93
2019-05-13T16:20:45.356Z,15.93
2019-05-13T16:23:12.333Z,16.78
2019-05-13T16:25:41.624Z,16.74
2019-05-13T16:28:08.407Z,16.28
2019-05-13T16:30:35.350Z,15.77
2019-05-13T16:33:02.978Z,16.01
2019-05-13T16:35:31.914Z,16.13
2019-05-13T16:37:59.004Z,16.13
2019-05-13T16:40:26.132Z,15.89
2019-05-13T16:42:53.124Z,15.74
2019-05-13T16:45:21.844Z,16.01
2019-05-13T16:47:57.786Z,16.14
2019-05-13T16:50:18.248Z,15.96
2019-05-13T16:52:45.244Z,16.05
2019-05-13T16:55:13.054Z,15.88
2019-05-13T16:57:42.184Z,15.77
2019-05-13T17:00:10.535Z,15.75
2019-05-13T17:02:37.522Z,15.94
2019-05-13T17:05:04.724Z,15.89
2019-05-13T17:07:31.872Z,15.70
2019-05-13T17:10:01.117Z,15.70
2019-05-13T17:12:27.700Z,15.57
2019-05-13T17:14:54.636Z,15.53
2019-05-13T17:17:21.614Z,15.33
2019-05-13T17:19:53.125Z,15.40
2019-05-13T17:22:17.854Z,15.46
2019-05-13T17:24:44.830Z,15.32
2019-05-13T17:27:12.249Z,15.22
2019-05-13T17:29:39.249Z,15.24
2019-05-13T17:32:06.229Z,15.35
2019-05-13T17:34:33.174Z,15.37
2019-05-13T17:37:02.532Z,15.09
2019-05-13T17:39:29.026Z,15.06
2019-05-13T17:41:55.975Z,14.98
2019-05-13T17:44:22.991Z,14.81
2019-05-13T17:46:52.054Z,14.76
2019-05-13T17:49:18.843Z,14.85
2019-05-13T17:51:45.772Z,14.87
2019-05-13T17:54:12.749Z,14.75
2019-05-13T17:56:39.717Z,14.72
2019-05-13T17:59:06.692Z,14.68
2019-05-13T18:01:33.639Z,14.52
2019-05-13T18:04:02.533Z,14.57
2019-05-13T18:06:29.484Z,14.42
2019-05-13T18:08:56.452Z,14.36
2019-05-13T18:11:23.376Z,14.36
2019-05-13T18:13:51.839Z,14.42
2019-05-13T18:16:21.920Z,14.37
2019-05-13T18:18:48.875Z,14.12
2019-05-13T18:21:15.808Z,14.07
2019-05-13T18:23:42.771Z,14.06
2019-05-13T18:26:11.830Z,13.99
2019-05-13T18:28:38.581Z,13.86
2019-05-13T18:31:05.516Z,13.80
2019-05-13T18:33:32.475Z,13.70
2019-05-13T18:36:01.538Z,13.58
2019-05-13T18:38:28.260Z,13.56
2019-05-13T18:40:55.192Z,13.73
2019-05-13T18:43:22.218Z,13.74
2019-05-13T18:45:49.360Z,13.63
2019-05-13T18:48:16.433Z,13.53
2019-05-13T18:50:43.481Z,13.38
2019-05-13T18:53:10.589Z,13.26
2019-05-13T18:55:37.537Z,13.14
2019-05-13T18:58:04.599Z,13.16
2019-05-13T19:00:32.258Z,13.11
2019-05-13T19:03:01.285Z,12.91
2019-05-13T19:05:28.202Z,12.93
2019-05-13T19:07:55.232Z,12.79
2019-05-13T19:10:22.223Z,12.70
2019-05-13T19:12:49.166Z,12.68
2019-05-13T19:15:17.137Z,12.68
2019-05-13T19:17:44.078Z,12.42
2019-05-13T19:20:11.693Z,12.32
2019-05-13T19:22:41.111Z,12.31
2019-05-13T19:25:07.853Z,12.19
2019-05-13T19:27:34.884Z,12.10
2019-05-13T19:30:01.940Z,12.19
2019-05-13T19:32:28.917Z,12.10
2019-05-13T19:34:55.966Z,11.96
2019-05-13T19:37:22.917Z,11.85
2019-05-13T19:39:49.880Z,11.81
2019-05-13T19:42:16.860Z,11.76
2019-05-13T19:44:43.926Z,11.68
2019-05-13T19:47:12.395Z,11.64
2019-05-13T19:49:44.150Z,11.66
2019-05-13T19:52:08.481Z,11.68
2019-05-13T19:54:35.670Z,11.56
2019-05-13T19:57:02.607Z,11.47
2019-05-13T19:59:32.041Z,11.42
2019-05-13T20:01:58.514Z,11.23
2019-05-13T20:04:25.498Z,11.28
2019-05-13T20:06:52.508Z,11.13
2019-05-13T20:09:21.533Z,11.09
2019-05-13T20:11:48.454Z,11.06
2019-05-13T20:14:15.478Z,10.99
2019-05-13T20:16:42.587Z,10.96
2019-05-13T20:19:11.681Z,10.77
2019-05-13T20:21:38.449Z,10.71
2019-05-13T20:24:05.601Z,10.63
2019-05-13T20:26:35.514Z,10.70
2019-05-13T20:29:02.041Z,10.50
2019-05-13T20:31:28.955Z,10.48
2019-05-13T20:33:55.918Z,10.34
2019-05-13T20:36:22.957Z,10.30
2019-05-13T20:38:51.548Z,10.33
2019-05-13T20:41:18.773Z,10.25
2019-05-13T20:43:45.738Z,10.15
2019-05-13T20:46:12.712Z,10.13
2019-05-13T20:48:41.152Z,10.03
2019-05-13T20:51:08.352Z,10.06
2019-05-13T20:53:35.314Z,9.78
2019-05-13T20:56:02.283Z,9.68
2019-05-13T20:58:31.581Z,9.70
2019-05-13T21:00:58.220Z,9.62
2019-05-13T21:03:25.165Z,9.58
2019-05-13T21:05:52.205Z,9.63
2019-05-13T21:08:21.522Z,9.47
2019-05-13T21:10:48.040Z,9.40
2019-05-13T21:13:15.045Z,9.32
2019-05-13T21:15:42.564Z,9.35
2019-05-13T21:18:11.471Z,9.24
2019-05-13T21:20:38.457Z,9.26
2019-05-13T21:23:05.416Z,9.19
2019-05-13T21:25:32.399Z,9.16
2019-05-13T21:27:59.334Z,9.12
2019-05-13T21:30:26.292Z,8.96
2019-05-13T21:32:53.225Z,8.89
2019-05-13T21:35:21.183Z,8.93
2019-05-13T21:37:48.522Z,8.86
2019-05-13T21:40:17.099Z,8.76
2019-05-13T21:42:44.171Z,8.69
2019-05-13T21:45:11.400Z,8.63
2019-05-13T21:47:38.399Z,8.61
2019-05-13T21:50:06.179Z,8.68
2019-05-13T21:52:33.115Z,8.62
2019-05-13T21:55:01.896Z,8.48
2019-05-13T21:57:32.924Z,8.46
2019-05-13T21:59:57.822Z,8.49
2019-05-13T22:02:24.786Z,8.50
2019-05-13T22:04:51.994Z,8.48
2019-05-13T22:07:18.942Z,8.37
2019-05-13T22:09:46.007Z,8.36
2019-05-13T22:12:13.011Z,8.28
2019-05-13T22:14:41.218Z,8.30
2019-05-13T22:17:08.328Z,8.25
2019-05-13T22:19:35.278Z,8.35
2019-05-13T22:22:02.592Z,8.32
2019-05-13T22:24:31.217Z,8.24
2019-05-13T22:26:58.355Z,8.17
2019-05-13T22:29:25.289Z,8.13
2019-05-13T22:31:52.258Z,8.12
2019-05-13T22:34:21.129Z,7.95
2019-05-13T22:36:48.103Z,7.91
2019-05-13T22:39:15.189Z,7.91
2019-05-13T22:41:42.335Z,7.91
2019-05-13T22:44:11.398Z,7.89
2019-05-13T22:46:38.558Z,7.86
2019-05-13T22:49:05.505Z,7.92
2019-05-13T22:51:32.480Z,7.74
2019-05-13T22:53:59.413Z,7.99
2019-05-13T22:56:26.363Z,7.95
2019-05-13T22:58:53.291Z,7.84
2019-05-13T23:01:21.862Z,7.78
2019-05-13T23:03:51.362Z,7.92
2019-05-13T23:06:17.999Z,7.78
2019-05-13T23:08:45.023Z,7.78
2019-05-13T23:11:11.985Z,7.77
2019-05-13T23:13:38.974Z,7.76
2019-05-13T23:16:05.947Z,7.78
2019-05-13T23:18:32.877Z,7.59
2019-05-13T23:21:02.076Z,7.48
2019-05-13T23:23:28.672Z,7.54
2019-05-13T23:25:57.012Z,7.60
2019-05-13T23:28:24.091Z,7.69
2019-05-13T23:30:51.264Z,7.59
2019-05-13T23:33:18.419Z,7.58
2019-05-13T23:35:45.427Z,7.61
2019-05-13T23:38:12.410Z,7.41
2019-05-13T23:40:39.557Z,7.73
2019-05-13T23:43:06.547Z,7.53
2019-05-13T23:45:33.496Z,7.45
2019-05-13T23:48:01.597Z,7.43
2019-05-13T23:50:28.710Z,7.69
2019-05-13T23:52:55.660Z,7.43
2019-05-13T23:55:22.681Z,7.45
2019-05-13T23:57:49.679Z,7.32
